aviador You're here:

KPEZ Decoded Metar

in _UNIDENTIFIED
Report Time2017-08-17 13:15:00
UTC Time2017-08-17 13:25:14
Flight Rules vfr VFR
Wind140° at 04 kt
W.Decomp.*RWY 16: 3.6 kt HW 1.8 kt LCW
W.Rank140° ranks 3
Current wind is below 140° avg. (7.3)
Visibility9999 m
Phenomena:N/A
Clouds:N/A
Expected CloudBase > 1,200 ft AGL from Temp-Dew spread
CeilingNone
Temp27°C (ISA +13)
Dew Point24°C (84% RH)
Heat Index30.1°C
QNH1016 hPa
Density Alt2,208 ft
Elevation433 ft
Report Wrong Elevation
Raw Report
METAR KPEZ 171315Z AUTO 14004KT 10SM CLR 27/24 A3001 RMK AO2 T02680241=

Extra information for KPEZ:More info

Metar Taf Metar & Taf Last 4 Metars F.Rules Stats Wind Profile Meteogram Temp Stats Metar ALERT Operation Metar Decoded Social comments